createdAt,value
2018-01-06T00:00:54.354Z,0
2018-01-06T00:01:54.595Z,0
2018-01-06T00:02:54.591Z,0
2018-01-06T00:03:54.596Z,0
2018-01-06T00:04:54.342Z,0
2018-01-06T00:05:54.326Z,0
2018-01-06T00:06:54.341Z,0
2018-01-06T00:07:54.055Z,0
2018-01-06T00:08:54.328Z,0
2018-01-06T00:09:54.576Z,0
2018-01-06T00:10:54.550Z,0
2018-01-06T00:11:54.819Z,0
2018-01-06T00:12:54.789Z,0
2018-01-06T00:13:54.532Z,0
2018-01-06T00:14:54.278Z,0
2018-01-06T00:15:54.541Z,0
2018-01-06T00:16:54.266Z,0
2018-01-06T00:17:54.800Z,0
2018-01-06T00:18:54.527Z,0
2018-01-06T00:19:54.540Z,0
2018-01-06T00:20:54.781Z,0
2018-01-06T00:21:54.522Z,0
2018-01-06T00:22:54.528Z,0
2018-01-06T00:23:54.526Z,0
2018-01-06T00:24:54.500Z,0
2018-01-06T00:25:54.244Z,0
2018-01-06T00:26:54.745Z,0
2018-01-06T00:27:54.235Z,0
2018-01-06T00:28:54.732Z,0
2018-01-06T00:29:54.715Z,0
2018-01-06T00:30:54.699Z,0
2018-01-06T00:31:54.204Z,0
2018-01-06T00:32:54.721Z,0
2018-01-06T00:33:54.176Z,0
2018-01-06T00:34:54.438Z,0
2018-01-06T00:35:54.426Z,0
2018-01-06T00:36:54.394Z,0
2018-01-06T00:37:53.884Z,0
2018-01-06T00:38:54.434Z,0
2018-01-06T00:39:54.137Z,0
2018-01-06T00:40:54.664Z,0
2018-01-06T00:41:54.675Z,0
2018-01-06T00:42:54.145Z,0
2018-01-06T00:43:54.367Z,0
2018-01-06T00:44:54.363Z,0
2018-01-06T00:45:54.380Z,0
2018-01-06T00:46:54.598Z,0
2018-01-06T00:47:54.375Z,0
2018-01-06T00:48:54.355Z,0
2018-01-06T00:49:54.356Z,0
2018-01-06T00:50:54.315Z,0
2018-01-06T00:51:54.608Z,0
2018-01-06T00:52:54.596Z,0
2018-01-06T00:53:54.091Z,0
2018-01-06T00:54:54.560Z,0
2018-01-06T00:55:54.047Z,0
2018-01-06T00:56:54.308Z,0
2018-01-06T00:57:54.292Z,0
2018-01-06T00:58:54.543Z,0
2018-01-06T00:59:54.298Z,0
2018-01-06T01:00:54.285Z,0
2018-01-06T01:01:54.051Z,0
2018-01-06T01:02:54.555Z,0
2018-01-06T01:03:54.008Z,0
2018-01-06T01:04:54.264Z,0
2018-01-06T01:05:54.248Z,0
2018-01-06T01:06:54.524Z,0
2018-01-06T01:07:54.237Z,0
2018-01-06T01:08:54.258Z,0
2018-01-06T01:09:54.490Z,0
2018-01-06T01:10:54.490Z,0
2018-01-06T01:11:54.223Z,0
2018-01-06T01:12:54.461Z,0
2018-01-06T01:13:54.217Z,0
2018-01-06T01:14:54.465Z,0
2018-01-06T01:15:54.199Z,0
2018-01-06T01:16:54.456Z,0
2018-01-06T01:17:54.197Z,0
2018-01-06T01:18:54.190Z,0
2018-01-06T01:19:53.929Z,0
2018-01-06T01:20:53.928Z,0
2018-01-06T01:21:53.921Z,0
2018-01-06T01:22:54.444Z,0
2018-01-06T01:23:54.158Z,0
2018-01-06T01:24:54.408Z,0
2018-01-06T01:25:54.406Z,0
2018-01-06T01:26:54.148Z,0
2018-01-06T01:27:53.888Z,0
2018-01-06T01:28:54.395Z,0
2018-01-06T01:29:54.388Z,0
2018-01-06T01:30:54.395Z,0
2018-01-06T01:31:54.129Z,0
2018-01-06T01:32:53.873Z,0
2018-01-06T01:33:54.372Z,0
2018-01-06T01:34:53.854Z,0
2018-01-06T01:35:54.357Z,0
2018-01-06T01:36:54.390Z,0
2018-01-06T01:37:54.350Z,0
2018-01-06T01:38:54.101Z,0
2018-01-06T01:39:54.091Z,0
2018-01-06T01:40:54.333Z,0
2018-01-06T01:41:53.830Z,0
2018-01-06T01:42:54.330Z,0
2018-01-06T01:43:54.326Z,0
2018-01-06T01:44:54.173Z,0
2018-01-06T01:45:54.073Z,0
2018-01-06T01:46:54.055Z,0
2018-01-06T01:47:54.306Z,0
2018-01-06T01:48:54.057Z,0
2018-01-06T01:49:54.296Z,0
2018-01-06T01:50:54.298Z,0
2018-01-06T01:51:54.285Z,0
2018-01-06T01:52:54.041Z,0
2018-01-06T01:53:54.041Z,0
2018-01-06T01:54:53.518Z,0
2018-01-06T01:55:54.463Z,0
2018-01-06T01:56:53.755Z,0
2018-01-06T01:57:54.015Z,0
2018-01-06T01:58:54.007Z,0
2018-01-06T01:59:53.998Z,0
2018-01-06T02:00:54.254Z,0
2018-01-06T02:01:54.325Z,0
2018-01-06T02:02:54.236Z,0
2018-01-06T02:03:54.230Z,0
2018-01-06T02:04:53.984Z,0
2018-01-06T02:05:54.220Z,0
2018-01-06T02:06:54.235Z,0
2018-01-06T02:07:54.218Z,0
2018-01-06T02:08:53.950Z,0
2018-01-06T02:09:54.200Z,0
2018-01-06T02:10:54.205Z,0
2018-01-06T02:11:53.942Z,0
2018-01-06T02:12:53.933Z,0
2018-01-06T02:13:54.189Z,0
2018-01-06T02:14:54.182Z,0
2018-01-06T02:15:54.174Z,0
2018-01-06T02:16:53.919Z,0
2018-01-06T02:17:53.916Z,0
2018-01-06T02:18:54.195Z,0
2018-01-06T02:19:54.164Z,0
2018-01-06T02:20:54.158Z,0
2018-01-06T02:21:53.891Z,0
2018-01-06T02:22:54.148Z,0
2018-01-06T02:23:54.146Z,0
2018-01-06T02:24:53.920Z,0
2018-01-06T02:25:54.130Z,0
2018-01-06T02:26:54.121Z,0
2018-01-06T02:27:54.117Z,0
2018-01-06T02:28:54.125Z,0
2018-01-06T02:29:54.125Z,0
2018-01-06T02:30:54.122Z,0
2018-01-06T02:31:53.851Z,0
2018-01-06T02:32:53.862Z,0
2018-01-06T02:33:53.846Z,0
2018-01-06T02:34:53.851Z,0
2018-01-06T02:35:54.094Z,0
2018-01-06T02:36:54.080Z,0
2018-01-06T02:37:54.126Z,0
2018-01-06T02:38:54.075Z,0
2018-01-06T02:39:54.069Z,0
2018-01-06T02:40:54.073Z,0
2018-01-06T02:41:54.069Z,0
2018-01-06T02:42:53.545Z,0
2018-01-06T02:43:54.066Z,0
2018-01-06T02:44:54.053Z,0
2018-01-06T02:45:53.789Z,0
2018-01-06T02:46:54.051Z,0
2018-01-06T02:47:54.042Z,0
2018-01-06T02:48:54.042Z,0
2018-01-06T02:49:54.030Z,0
2018-01-06T02:50:53.781Z,0
2018-01-06T02:51:54.020Z,0
2018-01-06T02:52:53.507Z,0
2018-01-06T02:53:54.004Z,0
2018-01-06T02:54:54.001Z,0
2018-01-06T02:55:53.745Z,0
2018-01-06T02:56:53.740Z,0
2018-01-06T02:57:53.485Z,0
2018-01-06T02:58:53.735Z,0
2018-01-06T02:59:53.472Z,0
2018-01-06T03:00:53.716Z,0
2018-01-06T03:01:53.727Z,0
2018-01-06T03:02:53.723Z,0
2018-01-06T03:03:53.962Z,0
2018-01-06T03:04:53.447Z,0
2018-01-06T03:05:53.703Z,0
2018-01-06T03:06:53.701Z,0
2018-01-06T03:07:53.432Z,0
2018-01-06T03:08:53.188Z,0
2018-01-06T03:09:53.701Z,0
2018-01-06T03:10:53.667Z,0
2018-01-06T03:11:53.669Z,0
2018-01-06T03:12:53.667Z,0
2018-01-06T03:13:53.909Z,0
2018-01-06T03:14:53.916Z,0
2018-01-06T03:15:53.398Z,0
2018-01-06T03:16:53.644Z,0
2018-01-06T03:17:53.643Z,0
2018-01-06T03:18:53.391Z,0
2018-01-06T03:19:53.388Z,0
2018-01-06T03:20:53.624Z,0
2018-01-06T03:21:53.884Z,0
2018-01-06T03:22:53.618Z,0
2018-01-06T03:23:53.616Z,0
2018-01-06T03:24:53.858Z,0
2018-01-06T03:25:53.351Z,0
2018-01-06T03:26:53.849Z,0
2018-01-06T03:27:53.593Z,0
2018-01-06T03:28:53.586Z,0
2018-01-06T03:29:53.836Z,0
2018-01-06T03:30:53.837Z,0
2018-01-06T03:31:53.828Z,0
2018-01-06T03:32:53.572Z,0
2018-01-06T03:33:53.820Z,0
2018-01-06T03:34:53.568Z,0
2018-01-06T03:35:53.588Z,0
2018-01-06T03:36:53.802Z,0
2018-01-06T03:37:53.846Z,0
2018-01-06T03:38:53.540Z,0
2018-01-06T03:39:53.791Z,0
2018-01-06T03:40:53.525Z,0
2018-01-06T03:41:53.557Z,0
2018-01-06T03:42:53.849Z,0
2018-01-06T03:43:53.769Z,0
2018-01-06T03:44:53.837Z,0
2018-01-06T03:45:53.506Z,0
2018-01-06T03:46:53.754Z,0
2018-01-06T03:47:53.252Z,0
2018-01-06T03:48:53.749Z,0
2018-01-06T03:49:53.746Z,0
2018-01-06T03:50:53.737Z,0
2018-01-06T03:51:53.788Z,0
2018-01-06T03:52:53.222Z,0
2018-01-06T03:53:53.724Z,0
2018-01-06T03:54:53.458Z,0
2018-01-06T03:55:56.181Z,0
2018-01-06T03:56:53.707Z,0
2018-01-06T03:57:53.698Z,0
2018-01-06T03:58:53.702Z,0
2018-01-06T03:59:53.435Z,0
2018-01-06T04:00:53.690Z,0
2018-01-06T04:01:53.687Z,0
2018-01-06T04:02:53.171Z,0
2018-01-06T04:03:53.686Z,0
2018-01-06T04:04:53.408Z,0
2018-01-06T04:05:53.653Z,0
2018-01-06T04:06:53.653Z,0
2018-01-06T04:07:53.398Z,0
2018-01-06T04:08:53.657Z,0
2018-01-06T04:09:53.385Z,0
2018-01-06T04:10:53.633Z,0
2018-01-06T04:11:53.381Z,0
2018-01-06T04:12:53.637Z,0
2018-01-06T04:13:53.112Z,0
2018-01-06T04:14:53.115Z,0
2018-01-06T04:15:53.347Z,0
2018-01-06T04:16:53.598Z,0
2018-01-06T04:17:53.611Z,0
2018-01-06T04:18:53.591Z,0
2018-01-06T04:19:53.589Z,0
2018-01-06T04:20:53.638Z,0
2018-01-06T04:21:53.575Z,0
2018-01-06T04:22:53.576Z,0
2018-01-06T04:23:53.317Z,0
2018-01-06T04:24:53.308Z,0
2018-01-06T04:25:53.552Z,0
2018-01-06T04:26:53.551Z,0
2018-01-06T04:27:53.299Z,0
2018-01-06T04:28:53.548Z,0
2018-01-06T04:29:53.546Z,0
2018-01-06T04:30:53.531Z,0
2018-01-06T04:31:53.269Z,0
2018-01-06T04:32:53.515Z,0
2018-01-06T04:33:53.256Z,0
2018-01-06T04:34:53.519Z,0
2018-01-06T04:35:53.254Z,0
2018-01-06T04:36:53.240Z,0
2018-01-06T04:37:52.995Z,0
2018-01-06T04:38:53.487Z,0
2018-01-06T04:39:53.496Z,0
2018-01-06T04:40:53.234Z,0
2018-01-06T04:41:53.474Z,0
2018-01-06T04:42:53.217Z,0
2018-01-06T04:43:53.216Z,0
2018-01-06T04:44:52.706Z,0
2018-01-06T04:45:53.520Z,0
2018-01-06T04:46:53.455Z,0
2018-01-06T04:47:52.944Z,0
2018-01-06T04:48:53.187Z,0
2018-01-06T04:49:53.443Z,0
2018-01-06T04:50:53.440Z,0
2018-01-06T04:51:53.193Z,0
2018-01-06T04:52:53.170Z,0
2018-01-06T04:53:53.411Z,0
2018-01-06T04:54:53.412Z,0
2018-01-06T04:55:53.160Z,0
2018-01-06T04:56:52.896Z,0
2018-01-06T04:57:53.148Z,0
2018-01-06T04:58:53.383Z,0
2018-01-06T04:59:53.388Z,0
2018-01-06T05:00:52.872Z,0
2018-01-06T05:01:54.188Z,0
2018-01-06T05:02:53.381Z,0
2018-01-06T05:03:53.119Z,0
2018-01-06T05:04:53.114Z,0
2018-01-06T05:05:52.851Z,0
2018-01-06T05:06:53.125Z,0
2018-01-06T05:07:53.357Z,0
2018-01-06T05:08:53.352Z,0
2018-01-06T05:09:53.346Z,0
2018-01-06T05:10:53.344Z,0
2018-01-06T05:11:53.065Z,0
2018-01-06T05:12:53.066Z,0
2018-01-06T05:13:53.069Z,0
2018-01-06T05:14:53.061Z,0
2018-01-06T05:15:53.298Z,0
2018-01-06T05:16:53.066Z,0
2018-01-06T05:17:53.286Z,0
2018-01-06T05:18:53.302Z,0
2018-01-06T05:19:53.036Z,0
2018-01-06T05:20:53.277Z,0
2018-01-06T05:21:53.282Z,0
2018-01-06T05:22:53.267Z,0
2018-01-06T05:23:52.771Z,0
2018-01-06T05:24:53.254Z,0
2018-01-06T05:25:53.003Z,0
2018-01-06T05:26:53.246Z,0
2018-01-06T05:27:53.008Z,0
2018-01-06T05:28:52.985Z,0
2018-01-06T05:29:53.250Z,0
2018-01-06T05:30:52.971Z,0
2018-01-06T05:31:52.965Z,0
2018-01-06T05:32:53.267Z,0
2018-01-06T05:33:52.965Z,0
2018-01-06T05:34:53.222Z,0
2018-01-06T05:35:53.214Z,0
2018-01-06T05:36:53.196Z,0
2018-01-06T05:37:52.937Z,0
2018-01-06T05:38:52.932Z,0
2018-01-06T05:39:53.182Z,0
2018-01-06T05:40:53.185Z,0
2018-01-06T05:41:53.165Z,0
2018-01-06T05:42:52.952Z,0
2018-01-06T05:43:53.157Z,0
2018-01-06T05:44:52.902Z,0
2018-01-06T05:45:53.147Z,0
2018-01-06T05:46:52.643Z,0
2018-01-06T05:47:53.145Z,0
2018-01-06T05:48:53.143Z,0
2018-01-06T05:49:53.135Z,0
2018-01-06T05:50:53.121Z,0
2018-01-06T05:51:52.872Z,0
2018-01-06T05:52:53.128Z,0
2018-01-06T05:53:53.114Z,0
2018-01-06T05:54:53.103Z,0
2018-01-06T05:55:52.599Z,0
2018-01-06T05:56:53.092Z,0
2018-01-06T05:57:53.090Z,0
2018-01-06T05:58:52.836Z,0
2018-01-06T05:59:52.844Z,0
2018-01-06T06:00:53.085Z,0
2018-01-06T06:01:52.819Z,0
2018-01-06T06:02:52.816Z,0
2018-01-06T06:03:52.562Z,0
2018-01-06T06:04:53.060Z,0
2018-01-06T06:05:53.046Z,0
2018-01-06T06:06:53.039Z,0
2018-01-06T06:07:53.049Z,0
2018-01-06T06:08:53.046Z,0
2018-01-06T06:09:52.800Z,0
2018-01-06T06:10:52.778Z,0
2018-01-06T06:11:52.543Z,0
2018-01-06T06:12:52.606Z,0
2018-01-06T06:13:53.023Z,0
2018-01-06T06:14:52.758Z,0
2018-01-06T06:15:52.747Z,0
2018-01-06T06:16:52.750Z,0
2018-01-06T06:17:52.750Z,0
2018-01-06T06:18:52.988Z,0
2018-01-06T06:19:52.750Z,0
2018-01-06T06:20:52.722Z,0
2018-01-06T06:21:52.721Z,0
2018-01-06T06:22:52.716Z,0
2018-01-06T06:23:52.707Z,0
2018-01-06T06:24:53.006Z,0
2018-01-06T06:25:52.701Z,0
2018-01-06T06:26:54.044Z,0
2018-01-06T06:27:52.948Z,0
2018-01-06T06:28:52.682Z,0
2018-01-06T06:29:52.927Z,0
2018-01-06T06:30:52.724Z,0
2018-01-06T06:31:52.917Z,0
2018-01-06T06:32:52.915Z,0
2018-01-06T06:33:52.909Z,0
2018-01-06T06:34:52.645Z,0
2018-01-06T06:35:52.648Z,0
2018-01-06T06:36:52.632Z,0
2018-01-06T06:37:52.627Z,0
2018-01-06T06:38:52.943Z,0
2018-01-06T06:39:52.868Z,0
2018-01-06T06:40:52.864Z,0
2018-01-06T06:41:52.627Z,0
2018-01-06T06:42:52.601Z,4
2018-01-06T06:43:52.855Z,4
2018-01-06T06:44:52.900Z,4
2018-01-06T06:45:52.941Z,0
2018-01-06T06:46:52.826Z,0
2018-01-06T06:47:52.067Z,4
2018-01-06T06:48:52.573Z,4
2018-01-06T06:49:52.811Z,0
2018-01-06T06:50:52.559Z,4
2018-01-06T06:51:52.812Z,4
2018-01-06T06:52:52.591Z,4
2018-01-06T06:53:52.555Z,4
2018-01-06T06:54:52.543Z,8
2018-01-06T06:55:52.817Z,4
2018-01-06T06:56:54.384Z,8
2018-01-06T06:57:52.523Z,8
2018-01-06T06:58:52.517Z,12
2018-01-06T06:59:52.769Z,8
2018-01-06T07:00:52.756Z,8
2018-01-06T07:01:52.505Z,16
2018-01-06T07:02:52.745Z,16
2018-01-06T07:03:51.986Z,20
2018-01-06T07:04:52.482Z,20
2018-01-06T07:05:52.488Z,24
2018-01-06T07:06:52.489Z,24
2018-01-06T07:07:52.730Z,32
2018-01-06T07:08:52.725Z,36
2018-01-06T07:09:52.709Z,36
2018-01-06T07:10:52.702Z,40
2018-01-06T07:11:52.200Z,48
2018-01-06T07:12:52.704Z,48
2018-01-06T07:13:52.735Z,56
2018-01-06T07:14:52.684Z,60
2018-01-06T07:15:52.682Z,68
2018-01-06T07:16:52.418Z,76
2018-01-06T07:17:52.703Z,84
2018-01-06T07:18:52.417Z,88
2018-01-06T07:19:52.402Z,96
2018-01-06T07:20:52.648Z,104
2018-01-06T07:21:52.394Z,104
2018-01-06T07:22:52.646Z,112
2018-01-06T07:23:52.381Z,120
2018-01-06T07:24:52.639Z,124
2018-01-06T07:25:52.635Z,132
2018-01-06T07:26:52.374Z,136
2018-01-06T07:27:52.109Z,144
2018-01-06T07:28:52.368Z,144
2018-01-06T07:29:52.610Z,148
2018-01-06T07:30:52.348Z,156
2018-01-06T07:31:52.359Z,160
2018-01-06T07:32:52.591Z,164
2018-01-06T07:33:52.591Z,172
2018-01-06T07:34:52.587Z,180
2018-01-06T07:35:52.331Z,192
2018-01-06T07:36:52.637Z,200
2018-01-06T07:37:52.313Z,204
2018-01-06T07:38:52.312Z,212
2018-01-06T07:39:52.081Z,220
2018-01-06T07:40:52.335Z,232
2018-01-06T07:41:52.546Z,244
2018-01-06T07:42:52.569Z,264
2018-01-06T07:43:52.289Z,280
2018-01-06T07:44:52.292Z,308
2018-01-06T07:45:52.052Z,328
2018-01-06T07:46:52.312Z,344
2018-01-06T07:47:52.276Z,356
2018-01-06T07:48:52.519Z,368
2018-01-06T07:49:52.003Z,372
2018-01-06T07:50:52.555Z,372
2018-01-06T07:51:52.502Z,380
2018-01-06T07:52:52.244Z,388
2018-01-06T07:53:52.281Z,400
2018-01-06T07:54:52.493Z,416
2018-01-06T07:55:52.231Z,420
2018-01-06T07:56:52.498Z,424
2018-01-06T07:57:52.475Z,424
2018-01-06T07:58:52.207Z,424
2018-01-06T07:59:52.473Z,428
2018-01-06T08:00:52.246Z,436
2018-01-06T08:01:52.203Z,452
2018-01-06T08:02:52.463Z,480
2018-01-06T08:03:52.185Z,520
2018-01-06T08:04:52.432Z,568
2018-01-06T08:05:52.429Z,616
2018-01-06T08:06:52.422Z,664
2018-01-06T08:07:52.158Z,704
2018-01-06T08:08:52.186Z,724
2018-01-06T08:09:52.171Z,736
2018-01-06T08:10:52.409Z,740
2018-01-06T08:11:52.146Z,748
2018-01-06T08:12:52.149Z,748
2018-01-06T08:13:51.890Z,740
2018-01-06T08:14:52.382Z,740
2018-01-06T08:15:52.374Z,736
2018-01-06T08:16:52.379Z,720
2018-01-06T08:17:52.373Z,700
2018-01-06T08:18:52.109Z,688
2018-01-06T08:19:52.353Z,680
2018-01-06T08:20:51.858Z,668
2018-01-06T08:21:52.348Z,680
2018-01-06T08:22:52.348Z,708
2018-01-06T08:23:52.340Z,736
2018-01-06T08:24:52.081Z,752
2018-01-06T08:25:52.378Z,768
2018-01-06T08:26:52.443Z,776
2018-01-06T08:27:52.476Z,784
2018-01-06T08:28:51.836Z,796
2018-01-06T08:29:52.307Z,820
2018-01-06T08:30:52.300Z,868
2018-01-06T08:31:52.297Z,932
2018-01-06T08:32:52.289Z,1008
2018-01-06T08:33:51.793Z,1056
2018-01-06T08:34:52.282Z,1076
2018-01-06T08:35:52.038Z,1080
2018-01-06T08:37:23.877Z,1076
2018-01-06T08:37:52.266Z,1080
2018-01-06T08:38:52.012Z,1140
2018-01-06T08:39:52.015Z,1260
2018-01-06T08:40:51.498Z,1388
2018-01-06T08:41:51.749Z,1452
2018-01-06T08:42:51.996Z,1460
2018-01-06T08:43:52.248Z,1448
2018-01-06T08:44:52.267Z,1404
2018-01-06T08:45:51.989Z,1344
2018-01-06T08:46:51.975Z,1340
2018-01-06T08:47:51.988Z,1416
2018-01-06T08:48:52.224Z,1512
2018-01-06T08:49:51.966Z,1572
2018-01-06T08:50:51.968Z,1580
2018-01-06T08:51:51.973Z,1552
2018-01-06T08:52:51.951Z,1496
2018-01-06T08:53:51.971Z,1436
2018-01-06T08:54:52.188Z,1428
2018-01-06T08:55:52.191Z,1460
2018-01-06T08:56:52.191Z,1476
2018-01-06T08:57:51.940Z,1468
2018-01-06T08:58:52.183Z,1508
2018-01-06T08:59:52.180Z,1600
2018-01-06T09:00:51.935Z,1720
2018-01-06T09:01:52.175Z,1848
2018-01-06T09:02:52.171Z,1988
2018-01-06T09:03:51.916Z,2148
2018-01-06T09:04:51.655Z,2316
2018-01-06T09:05:51.915Z,2424
2018-01-06T09:06:52.165Z,2508
2018-01-06T09:07:51.892Z,2560
2018-01-06T09:08:51.891Z,2528
2018-01-06T09:09:51.897Z,2452
2018-01-06T09:10:52.151Z,2368
2018-01-06T09:11:52.134Z,2276
2018-01-06T09:12:51.687Z,2180
2018-01-06T09:13:51.869Z,2332
2018-01-06T09:14:52.116Z,2376
2018-01-06T09:15:51.878Z,2500
2018-01-06T09:16:51.854Z,2360
2018-01-06T09:17:52.105Z,2728
2018-01-06T09:18:51.856Z,2516
2018-01-06T09:19:51.864Z,2864
2018-01-06T09:20:52.094Z,3760
2018-01-06T09:21:51.853Z,3632
2018-01-06T09:22:51.855Z,3512
2018-01-06T09:23:51.847Z,3456
2018-01-06T09:24:51.886Z,3876
2018-01-06T09:25:51.832Z,4712
2018-01-06T09:26:51.818Z,4852
2018-01-06T09:27:53.072Z,5020
2018-01-06T09:28:51.811Z,4484
2018-01-06T09:29:51.813Z,5144
2018-01-06T09:30:51.829Z,5548
2018-01-06T09:31:52.058Z,5664
2018-01-06T09:32:52.050Z,5452
2018-01-06T09:33:51.805Z,5788
2018-01-06T09:34:51.805Z,5960
2018-01-06T09:35:51.791Z,6032
2018-01-06T09:36:52.042Z,6028
2018-01-06T09:37:51.530Z,5952
2018-01-06T09:38:52.070Z,4416
2018-01-06T09:39:52.029Z,4308
2018-01-06T09:40:52.042Z,4896
2018-01-06T09:41:52.044Z,5360
2018-01-06T09:42:51.854Z,6128
2018-01-06T09:43:51.769Z,6120
2018-01-06T09:44:52.032Z,4580
2018-01-06T09:45:51.765Z,4384
2018-01-06T09:46:51.754Z,4364
2018-01-06T09:47:52.009Z,4376
2018-01-06T09:48:51.766Z,4412
2018-01-06T09:49:51.748Z,4444
2018-01-06T09:50:51.758Z,4444
2018-01-06T09:51:51.492Z,4496
2018-01-06T09:52:51.518Z,4516
2018-01-06T09:53:52.001Z,4500
2018-01-06T09:54:51.736Z,4452
2018-01-06T09:55:52.032Z,4408
2018-01-06T09:56:51.729Z,4412
2018-01-06T09:57:52.026Z,4436
2018-01-06T09:58:51.975Z,4400
2018-01-06T09:59:51.980Z,4328
2018-01-06T10:00:51.728Z,4308
2018-01-06T10:01:51.720Z,4248
2018-01-06T10:02:51.713Z,4228
2018-01-06T10:03:51.969Z,4192
2018-01-06T10:04:51.973Z,4212
2018-01-06T10:05:51.710Z,4276
2018-01-06T10:06:51.464Z,4340
2018-01-06T10:07:51.974Z,4392
2018-01-06T10:08:51.988Z,4624
2018-01-06T10:09:51.955Z,4676
2018-01-06T10:10:51.952Z,4568
2018-01-06T10:11:51.692Z,4508
2018-01-06T10:12:51.694Z,4572
2018-01-06T10:13:51.696Z,5244
2018-01-06T10:14:51.949Z,5620
2018-01-06T10:15:51.936Z,6020
2018-01-06T10:16:51.954Z,5096
2018-01-06T10:17:51.924Z,5660
2018-01-06T10:18:51.670Z,6136
2018-01-06T10:19:51.924Z,6088
2018-01-06T10:20:51.925Z,5980
2018-01-06T10:21:51.420Z,5724
2018-01-06T10:52:43.171Z,3420
2018-01-06T10:53:42.907Z,3512
2018-01-06T10:54:43.150Z,3620
2018-01-06T10:55:42.890Z,4032
2018-01-06T10:56:42.877Z,4288
2018-01-06T10:57:43.128Z,4756
2018-01-06T10:58:43.148Z,4412
2018-01-06T10:59:43.112Z,4384
2018-01-06T11:00:42.711Z,4688
2018-01-06T11:01:42.857Z,5168
2018-01-06T11:02:42.612Z,5288
2018-01-06T11:03:43.100Z,5656
2018-01-06T11:04:43.093Z,6588
2018-01-06T11:05:43.094Z,6624
2018-01-06T11:06:42.586Z,6872
2018-01-06T11:07:43.148Z,6996
2018-01-06T11:08:42.822Z,6944
2018-01-06T11:09:42.828Z,6796
2018-01-06T11:10:42.573Z,6892
2018-01-06T11:11:42.820Z,6792
2018-01-06T11:12:42.559Z,6388
2018-01-06T11:13:43.060Z,6864
2018-01-06T11:14:43.060Z,6772
2018-01-06T11:15:43.060Z,6636
2018-01-06T11:16:42.800Z,6256
2018-01-06T11:17:43.230Z,6076
2018-01-06T11:18:43.062Z,5980
2018-01-06T11:19:42.550Z,6028
2018-01-06T11:20:42.798Z,6440
2018-01-06T11:21:43.062Z,6960
2018-01-06T11:22:43.046Z,6976
2018-01-06T11:23:43.045Z,7092
2018-01-06T11:24:42.797Z,7076
2018-01-06T11:25:42.543Z,6900
2018-01-06T11:26:42.795Z,6860
2018-01-06T11:27:43.048Z,7340
2018-01-06T11:28:43.047Z,6704
2018-01-06T11:29:42.796Z,6292
2018-01-06T11:30:42.521Z,6336
2018-01-06T11:31:43.042Z,6484
2018-01-06T11:32:42.783Z,6704
2018-01-06T11:33:42.969Z,6904
2018-01-06T11:34:44.368Z,6700
2018-01-06T11:35:42.770Z,6376
2018-01-06T11:36:43.013Z,6188
2018-01-06T11:37:43.014Z,5944
2018-01-06T11:38:43.037Z,5728
2018-01-06T11:39:42.776Z,5560
2018-01-06T11:40:42.516Z,5404
2018-01-06T11:41:43.037Z,5620
2018-01-06T11:42:42.781Z,5852
2018-01-06T11:43:42.524Z,5808
2018-01-06T11:44:43.020Z,5696
2018-01-06T11:45:42.524Z,5472
2018-01-06T11:46:43.041Z,5220
2018-01-06T11:47:43.015Z,4964
2018-01-06T11:48:43.039Z,4792
2018-01-06T11:49:43.062Z,4680
2018-01-06T11:50:43.008Z,4572
2018-01-06T11:51:42.751Z,4576
2018-01-06T11:52:42.751Z,4504
2018-01-06T11:53:42.761Z,4612
2018-01-06T11:54:43.002Z,4744
2018-01-06T11:55:43.098Z,4820
2018-01-06T11:56:43.008Z,5168
2018-01-06T11:57:43.002Z,5456
2018-01-06T11:58:42.783Z,5588
2018-01-06T11:59:43.005Z,5572
2018-01-06T12:00:43.007Z,5692
2018-01-06T12:01:43.006Z,5968
2018-01-06T12:02:42.790Z,6188
2018-01-06T12:03:42.753Z,6344
2018-01-06T12:04:42.763Z,6496
2018-01-06T12:05:42.792Z,6528
2018-01-06T12:06:42.749Z,6452
2018-01-06T12:07:43.041Z,6408
2018-01-06T12:08:43.009Z,6452
2018-01-06T12:09:42.752Z,6440
2018-01-06T12:10:42.790Z,6348
2018-01-06T12:11:42.509Z,6312
2018-01-06T12:12:43.017Z,6312
2018-01-06T12:13:42.756Z,6564
2018-01-06T12:14:42.990Z,6468
2018-01-06T12:15:42.995Z,5968
2018-01-06T12:16:42.807Z,5852
2018-01-06T12:17:42.763Z,5716
2018-01-06T12:18:43.041Z,5572
2018-01-06T12:19:42.758Z,5520
2018-01-06T12:20:42.495Z,5172
2018-01-06T12:21:42.734Z,5080
2018-01-06T12:22:42.991Z,4860
2018-01-06T12:23:42.993Z,4748
2018-01-06T12:24:43.016Z,4584
2018-01-06T12:25:42.989Z,4496
2018-01-06T12:26:42.995Z,4444
2018-01-06T12:27:42.522Z,4488
2018-01-06T12:28:42.993Z,4588
2018-01-06T12:29:43.078Z,4656
2018-01-06T12:30:43.002Z,4628
2018-01-06T12:31:42.732Z,4588
2018-01-06T12:32:42.767Z,4540
2018-01-06T12:33:42.765Z,4600
2018-01-06T12:34:42.978Z,5092
2018-01-06T12:35:42.731Z,4688
2018-01-06T12:36:42.491Z,4680
2018-01-06T12:37:42.729Z,4608
2018-01-06T12:38:42.732Z,4524
2018-01-06T12:39:42.508Z,4440
2018-01-06T12:40:42.731Z,4328
2018-01-06T12:41:42.492Z,4160
2018-01-06T12:42:42.479Z,4004
2018-01-06T12:43:42.988Z,3864
2018-01-06T12:44:43.009Z,3772
2018-01-06T12:45:42.746Z,3680
2018-01-06T12:46:42.734Z,3560
2018-01-06T12:47:42.721Z,3448
2018-01-06T12:48:42.985Z,3376
2018-01-06T12:49:42.482Z,3312
2018-01-06T12:50:42.988Z,3248
2018-01-06T12:51:42.746Z,3296
2018-01-06T12:52:42.781Z,3308
2018-01-06T12:53:42.465Z,3264
2018-01-06T12:54:42.719Z,3256
2018-01-06T12:55:42.470Z,3264
2018-01-06T12:56:42.225Z,3232
2018-01-06T12:57:42.464Z,3204
2018-01-06T12:58:42.474Z,3180
2018-01-06T12:59:42.752Z,3180
2018-01-06T13:00:42.718Z,3176
2018-01-06T13:01:42.709Z,3168
2018-01-06T13:02:43.047Z,3140
2018-01-06T13:03:42.465Z,3132
2018-01-06T13:04:42.469Z,3124
2018-01-06T13:05:42.465Z,3144
2018-01-06T13:06:42.706Z,3168
2018-01-06T13:07:42.961Z,3216
2018-01-06T13:08:42.477Z,3256
2018-01-06T13:09:42.465Z,3272
2018-01-06T13:10:42.725Z,3292
2018-01-06T13:11:42.803Z,3280
2018-01-06T13:12:42.959Z,3236
2018-01-06T13:13:42.464Z,3156
2018-01-06T13:14:42.747Z,3072
2018-01-06T13:15:42.757Z,3044
2018-01-06T13:16:42.692Z,3012
2018-01-06T13:17:42.496Z,2920
2018-01-06T13:18:42.965Z,2844
2018-01-06T13:19:42.730Z,2868
2018-01-06T13:20:42.693Z,2904
2018-01-06T13:21:42.957Z,2916
2018-01-06T13:22:42.588Z,2820
2018-01-06T13:23:42.706Z,2764
2018-01-06T13:24:42.690Z,2764
2018-01-06T13:25:42.932Z,2760
2018-01-06T13:26:42.487Z,2728
2018-01-06T13:27:42.767Z,2692
2018-01-06T13:28:42.693Z,2680
2018-01-06T13:29:42.694Z,2660
2018-01-06T13:30:42.680Z,2584
2018-01-06T13:31:42.426Z,2504
2018-01-06T13:32:42.924Z,2552
2018-01-06T13:33:42.949Z,2656
2018-01-06T13:34:42.667Z,2712
2018-01-06T13:35:42.696Z,2656
2018-01-06T13:36:42.658Z,2680
2018-01-06T13:37:42.923Z,2752
2018-01-06T13:38:42.926Z,2796
2018-01-06T13:39:42.690Z,2664
2018-01-06T13:40:42.922Z,2540
2018-01-06T13:41:42.650Z,2600
2018-01-06T13:42:42.472Z,2704
2018-01-06T13:43:42.949Z,2776
2018-01-06T13:44:42.650Z,2788
2018-01-06T13:45:42.666Z,2860
2018-01-06T13:46:42.517Z,2884
2018-01-06T13:47:42.904Z,2760
2018-01-06T13:48:42.673Z,2656
2018-01-06T13:49:42.746Z,2792
2018-01-06T13:50:42.425Z,3056
2018-01-06T13:51:42.959Z,2864
2018-01-06T13:52:42.989Z,2688
2018-01-06T13:53:42.640Z,2552
2018-01-06T13:54:42.632Z,2520
2018-01-06T13:55:42.640Z,2544
2018-01-06T13:56:42.656Z,2512
2018-01-06T13:57:42.627Z,2404
2018-01-06T13:58:42.384Z,2376
2018-01-06T13:59:42.889Z,2520
2018-01-06T14:00:42.973Z,2576
2018-01-06T14:01:42.632Z,2564
2018-01-06T14:02:42.880Z,2556
2018-01-06T14:03:42.363Z,2540
2018-01-06T14:04:42.902Z,2564
2018-01-06T14:05:42.892Z,2552
2018-01-06T14:06:42.627Z,2596
2018-01-06T14:07:42.883Z,2672
2018-01-06T14:08:42.906Z,2728
2018-01-06T14:09:42.893Z,2688
2018-01-06T14:10:42.856Z,2640
2018-01-06T14:11:42.914Z,2636
2018-01-06T14:12:42.604Z,2672
2018-01-06T14:13:42.669Z,2652
2018-01-06T14:14:42.610Z,2604
2018-01-06T14:15:42.847Z,2516
2018-01-06T14:16:42.858Z,2440
2018-01-06T14:17:42.945Z,2348
2018-01-06T14:18:42.937Z,2280
2018-01-06T14:19:42.074Z,2228
2018-01-06T14:20:42.858Z,2180
2018-01-06T14:21:42.334Z,2144
2018-01-06T14:22:42.596Z,2128
2018-01-06T14:23:42.823Z,2104
2018-01-06T14:24:42.591Z,2040
2018-01-06T14:25:42.568Z,1988
2018-01-06T14:26:42.598Z,1928
2018-01-06T14:27:42.582Z,1868
2018-01-06T14:28:42.631Z,1808
2018-01-06T14:29:42.340Z,1756
2018-01-06T14:30:43.003Z,1700
2018-01-06T14:31:42.614Z,1684
2018-01-06T14:32:42.767Z,1652
2018-01-06T14:33:42.596Z,1640
2018-01-06T14:34:42.553Z,1576